createdAt,value
2022-10-15T00:01:23.518Z,35.47
2022-10-15T00:03:50.675Z,41.00
2022-10-15T00:06:20.711Z,45.83
2022-10-15T00:08:48.169Z,38.42
2022-10-15T00:11:18.337Z,38.00
2022-10-15T00:13:45.648Z,35.30
2022-10-15T00:16:19.705Z,35.50
2022-10-15T00:18:46.911Z,35.72
2022-10-15T00:21:16.400Z,36.40
2022-10-15T00:23:44.293Z,34.92
2022-10-15T00:26:15.532Z,36.38
2022-10-15T00:28:42.831Z,37.10
2022-10-15T00:31:13.320Z,37.03
2022-10-15T00:33:41.564Z,35.10
2022-10-15T00:36:12.920Z,36.92
2022-10-15T00:38:40.255Z,36.10
2022-10-15T00:41:10.947Z,36.75
2022-10-15T00:43:53.372Z,35.42
2022-10-15T00:46:37.316Z,36.30
2022-10-15T00:49:08.978Z,36.10
2022-10-15T00:51:42.118Z,38.53
2022-10-15T00:54:11.253Z,36.20
2022-10-15T00:56:41.455Z,35.30
2022-10-15T00:59:09.772Z,36.60
2022-10-15T01:01:36.877Z,36.95
2022-10-15T01:04:05.849Z,34.75
2022-10-15T01:06:32.915Z,37.47
2022-10-15T01:09:01.023Z,37.45
2022-10-15T01:11:37.182Z,36.22
2022-10-15T01:14:49.026Z,38.67
2022-10-15T01:17:32.333Z,37.78
2022-10-15T01:20:30.137Z,39.85
2022-10-15T01:23:15.582Z,39.35
2022-10-15T01:25:48.257Z,38.88
2022-10-15T01:28:32.177Z,40.15
2022-10-15T01:31:03.882Z,39.40
2022-10-15T01:33:47.566Z,39.55
2022-10-15T01:36:27.830Z,39.85
2022-10-15T01:39:09.777Z,41.10
2022-10-15T01:41:42.307Z,40.83
2022-10-15T01:44:16.764Z,41.47
2022-10-15T01:46:58.913Z,41.53
2022-10-15T01:49:30.445Z,42.13
2022-10-15T01:52:02.209Z,41.15
2022-10-15T01:54:29.786Z,41.53
2022-10-15T01:56:58.838Z,41.88
2022-10-15T01:59:30.177Z,42.58
2022-10-15T02:01:58.405Z,43.90
2022-10-15T02:04:31.198Z,44.40
2022-10-15T02:07:05.598Z,41.28
2022-10-15T02:09:38.548Z,42.65
2022-10-15T02:12:41.997Z,43.13
2022-10-15T02:15:17.703Z,43.45
2022-10-15T02:18:12.846Z,43.42
2022-10-15T02:20:59.501Z,43.00
2022-10-15T02:23:43.339Z,43.05
2022-10-15T02:26:12.190Z,44.42
2022-10-15T02:28:43.282Z,42.03
2022-10-15T02:31:14.301Z,43.08
2022-10-15T02:33:42.539Z,45.33
2022-10-15T02:36:10.126Z,43.35
2022-10-15T02:38:40.370Z,44.67
2022-10-15T02:41:08.643Z,43.92
2022-10-15T02:43:36.586Z,45.40
2022-10-15T02:46:05.061Z,46.40
2022-10-15T02:48:32.255Z,45.42
2022-10-15T02:50:59.247Z,45.13
2022-10-15T02:53:26.289Z,46.55
2022-10-15T02:55:53.301Z,46.35
2022-10-15T02:58:20.296Z,46.42
2022-10-15T03:00:47.369Z,45.70
2022-10-15T03:03:14.443Z,46.58
2022-10-15T03:05:43.333Z,45.50
2022-10-15T03:08:10.355Z,46.25
2022-10-15T03:10:37.360Z,46.92
2022-10-15T03:13:05.949Z,43.92
2022-10-15T03:15:33.603Z,46.88
2022-10-15T03:18:00.600Z,47.03
2022-10-15T03:20:27.651Z,44.97
2022-10-15T03:22:55.142Z,45.63
2022-10-15T03:25:22.844Z,46.88
2022-10-15T03:27:52.771Z,42.88
2022-10-15T03:30:20.251Z,43.08
2022-10-15T03:32:48.229Z,47.28
2022-10-15T03:35:15.509Z,46.00
2022-10-15T03:37:42.522Z,44.85
2022-10-15T03:40:13.730Z,43.33
2022-10-15T03:42:41.718Z,43.83
2022-10-15T03:45:09.179Z,43.47
2022-10-15T03:47:36.225Z,44.03
2022-10-15T03:50:03.534Z,45.05
2022-10-15T03:52:30.543Z,44.55
2022-10-15T03:54:57.546Z,45.15
2022-10-15T03:57:25.001Z,43.28
2022-10-15T03:59:52.037Z,45.13
2022-10-15T04:02:19.111Z,45.00
2022-10-15T04:04:46.099Z,45.78
2022-10-15T04:07:13.155Z,44.65
2022-10-15T04:09:40.175Z,46.83
2022-10-15T04:12:07.176Z,46.28
2022-10-15T04:14:34.167Z,45.65
2022-10-15T04:17:01.879Z,47.50
2022-10-15T04:19:28.999Z,47.17
2022-10-15T04:21:56.404Z,46.80
2022-10-15T04:24:23.791Z,46.08
2022-10-15T04:26:50.949Z,46.40
2022-10-15T04:29:18.029Z,46.58
2022-10-15T04:31:45.207Z,46.45
2022-10-15T04:34:12.645Z,45.75
2022-10-15T04:36:39.679Z,48.50
2022-10-15T04:39:08.609Z,48.60
2022-10-15T04:41:37.949Z,47.13
2022-10-15T04:44:05.150Z,46.58
2022-10-15T04:46:32.274Z,45.42
2022-10-15T04:48:59.388Z,45.40
2022-10-15T04:51:26.986Z,47.00
2022-10-15T04:53:55.764Z,46.35
2022-10-15T04:56:23.646Z,46.22
2022-10-15T04:58:51.287Z,47.33
2022-10-15T05:01:20.223Z,46.40
2022-10-15T05:03:48.863Z,47.08
2022-10-15T05:06:20.868Z,44.70
2022-10-15T05:08:49.174Z,48.15
2022-10-15T05:11:21.570Z,46.33
2022-10-15T05:13:49.071Z,47.03
2022-10-15T05:16:21.863Z,46.58
2022-10-15T05:18:50.711Z,47.80
2022-10-15T05:21:19.117Z,46.53
2022-10-15T05:23:47.179Z,46.22
2022-10-15T05:26:15.943Z,45.33
2022-10-15T05:28:43.093Z,46.13
2022-10-15T05:31:18.353Z,47.58
2022-10-15T05:33:49.718Z,45.65
2022-10-15T05:36:21.332Z,45.70
2022-10-15T05:38:51.360Z,47.08
2022-10-15T05:41:18.786Z,47.13
2022-10-15T05:43:50.623Z,48.08
2022-10-15T05:46:18.843Z,46.28
2022-10-15T05:48:53.936Z,49.15
2022-10-15T05:51:21.277Z,50.70
2022-10-15T05:53:51.470Z,51.83
2022-10-15T05:56:18.495Z,52.75
2022-10-15T05:58:45.616Z,51.88
2022-10-15T06:01:13.567Z,51.17
2022-10-15T06:03:41.604Z,53.80
2022-10-15T06:06:22.995Z,59.35
2022-10-15T06:08:50.494Z,57.70
2022-10-15T06:11:18.162Z,58.08
2022-10-15T06:13:46.367Z,60.03
2022-10-15T06:16:18.034Z,58.55
2022-10-15T06:18:48.163Z,57.33
2022-10-15T06:21:15.208Z,55.00
2022-10-15T06:23:42.235Z,53.90
2022-10-15T06:26:10.315Z,55.42
2022-10-15T06:28:38.564Z,56.28
2022-10-15T06:31:07.284Z,52.97
2022-10-15T06:33:35.342Z,51.15
2022-10-15T06:36:04.633Z,56.10
2022-10-15T06:38:33.007Z,50.28
2022-10-15T06:41:00.235Z,54.47
2022-10-15T06:43:29.805Z,48.58
2022-10-15T06:46:00.156Z,48.35
2022-10-15T06:48:27.260Z,48.05
2022-10-15T06:50:54.882Z,47.42
2022-10-15T06:53:22.991Z,45.13
2022-10-15T06:55:50.030Z,44.72
2022-10-15T06:58:17.133Z,45.30
2022-10-15T07:00:44.197Z,48.13
2022-10-15T07:03:13.530Z,50.92
2022-10-15T07:05:40.549Z,50.25
2022-10-15T07:08:07.576Z,46.88
2022-10-15T07:10:34.714Z,49.28
2022-10-15T07:13:02.087Z,53.33
2022-10-15T07:15:29.314Z,66.35
2022-10-15T07:17:57.885Z,52.13
2022-10-15T07:20:25.169Z,49.55
2022-10-15T07:23:00.321Z,51.08
2022-10-15T07:25:28.141Z,44.78
2022-10-15T07:27:56.461Z,47.17
2022-10-15T07:30:27.562Z,42.13
2022-10-15T07:32:58.510Z,44.25
2022-10-15T07:35:27.130Z,43.25
2022-10-15T07:38:00.251Z,40.80
2022-10-15T07:40:27.262Z,39.97
2022-10-15T07:42:56.230Z,39.70
2022-10-15T07:45:25.126Z,39.90
2022-10-15T07:47:53.220Z,39.67
2022-10-15T07:50:21.054Z,43.40
2022-10-15T07:52:48.148Z,35.63
2022-10-15T07:55:15.226Z,32.50
2022-10-15T07:57:42.253Z,31.38
2022-10-15T08:00:09.926Z,31.02
2022-10-15T08:02:36.977Z,28.88
2022-10-15T08:05:04.183Z,29.73
2022-10-15T08:07:31.234Z,28.17
2022-10-15T08:09:58.285Z,28.20
2022-10-15T08:12:25.881Z,27.67
2022-10-15T08:14:53.168Z,25.70
2022-10-15T08:17:20.234Z,26.77
2022-10-15T08:19:47.336Z,28.45
2022-10-15T08:22:14.920Z,25.13
2022-10-15T08:24:41.989Z,24.60
2022-10-15T08:27:09.048Z,22.88
2022-10-15T08:29:36.157Z,21.88
2022-10-15T08:32:03.310Z,25.15
2022-10-15T08:34:30.416Z,36.08
2022-10-15T08:36:57.501Z,24.65
2022-10-15T08:39:25.150Z,29.58
2022-10-15T08:41:57.051Z,26.05
2022-10-15T08:44:27.612Z,28.92
2022-10-15T08:47:02.890Z,27.58
2022-10-15T08:49:56.518Z,24.27
2022-10-15T08:52:34.236Z,21.17
2022-10-15T08:55:05.294Z,22.52
2022-10-15T08:57:38.559Z,19.67
2022-10-15T09:00:20.531Z,19.13
2022-10-15T09:03:24.117Z,19.95
2022-10-15T09:06:02.098Z,19.55
2022-10-15T09:08:32.028Z,19.83
2022-10-15T09:11:35.656Z,19.85
2022-10-15T09:14:06.036Z,18.42
2022-10-15T09:16:37.326Z,17.85
2022-10-15T09:19:11.672Z,15.18
2022-10-15T09:21:38.919Z,15.13
2022-10-15T09:24:06.233Z,14.77
2022-10-15T09:26:44.819Z,15.85
2022-10-15T09:29:22.089Z,14.25
2022-10-15T09:32:03.184Z,14.95
2022-10-15T09:34:40.261Z,17.45
2022-10-15T09:37:16.176Z,15.23
2022-10-15T09:40:01.971Z,16.17
2022-10-15T09:42:34.384Z,15.05
2022-10-15T09:45:05.806Z,15.40
2022-10-15T09:47:35.338Z,14.13
2022-10-15T09:50:05.450Z,14.88
2022-10-15T09:52:54.143Z,14.98
2022-10-15T09:55:36.887Z,15.05
2022-10-15T09:58:10.585Z,15.80
2022-10-15T10:01:23.249Z,15.30
2022-10-15T10:04:11.679Z,15.43
2022-10-15T10:06:50.729Z,18.70
2022-10-15T10:09:21.602Z,16.83
2022-10-15T10:11:55.355Z,13.98
2022-10-15T10:17:18.566Z,14.07
2022-10-15T10:20:22.456Z,17.15
2022-10-15T10:22:52.579Z,15.23
2022-10-15T10:25:42.788Z,14.13
2022-10-15T10:28:09.930Z,13.80
2022-10-15T10:30:43.845Z,14.35
2022-10-15T10:33:16.711Z,14.10
2022-10-15T10:35:46.621Z,17.87
2022-10-15T10:38:22.032Z,14.60
2022-10-15T10:40:59.070Z,12.90
2022-10-15T10:43:28.822Z,14.05
2022-10-15T10:46:16.021Z,15.00
2022-10-15T10:48:46.050Z,16.58
2022-10-15T10:51:19.357Z,13.20
2022-10-15T10:53:58.404Z,15.95
2022-10-15T10:56:34.077Z,13.65
2022-10-15T10:59:12.969Z,12.30
2022-10-15T11:01:40.019Z,12.05
2022-10-15T11:04:18.571Z,12.60
2022-10-15T11:06:58.349Z,11.45
2022-10-15T11:09:47.937Z,11.57
2022-10-15T11:12:38.504Z,11.02
2022-10-15T11:15:18.858Z,9.80
2022-10-15T11:18:08.864Z,9.43
2022-10-15T11:21:00.707Z,8.95
2022-10-15T11:23:53.685Z,11.32
2022-10-15T11:26:26.391Z,23.95
2022-10-15T11:28:59.597Z,12.23
2022-10-15T11:31:49.270Z,9.57
2022-10-15T11:34:46.461Z,13.57
2022-10-15T11:37:38.553Z,9.00
2022-10-15T11:40:33.369Z,10.43
2022-10-15T11:43:08.561Z,7.82
2022-10-15T11:45:57.054Z,8.30
2022-10-15T11:48:42.534Z,6.70
2022-10-15T11:51:32.117Z,7.60
2022-10-15T11:54:34.611Z,7.70
2022-10-15T11:57:03.735Z,7.93
2022-10-15T11:59:49.863Z,21.15
2022-10-15T12:02:34.887Z,8.30
2022-10-15T12:05:31.229Z,7.40
2022-10-15T12:07:58.589Z,13.00
2022-10-15T12:10:34.410Z,9.00
2022-10-15T12:14:06.175Z,12.18
2022-10-15T12:16:42.420Z,7.82
2022-10-15T12:19:18.843Z,14.35
2022-10-15T12:21:54.442Z,10.50
2022-10-15T12:24:40.450Z,7.80
2022-10-15T12:27:19.546Z,12.00
2022-10-15T12:30:12.891Z,9.02
2022-10-15T12:32:48.697Z,5.85
2022-10-15T12:35:16.182Z,7.15
2022-10-15T12:37:46.024Z,5.80
2022-10-15T12:40:27.111Z,5.70
2022-10-15T12:43:03.374Z,5.95
2022-10-15T12:45:41.888Z,5.05
2022-10-15T12:48:08.827Z,5.43
2022-10-15T12:50:37.291Z,5.05
2022-10-15T12:53:26.009Z,4.78
2022-10-15T12:56:24.078Z,5.43
2022-10-15T12:58:56.123Z,6.28
2022-10-15T13:01:23.124Z,5.63
2022-10-15T13:03:50.601Z,6.05
2022-10-15T13:06:20.627Z,5.97
2022-10-15T13:09:10.532Z,6.88
2022-10-15T13:11:43.293Z,6.50
2022-10-15T13:14:31.005Z,7.60
2022-10-15T13:17:00.810Z,7.75
2022-10-15T13:19:39.315Z,7.45
2022-10-15T13:22:21.420Z,7.35
2022-10-15T13:24:48.660Z,7.75
2022-10-15T13:27:23.447Z,6.70
2022-10-15T13:30:02.157Z,6.65
2022-10-15T13:32:33.260Z,7.03
2022-10-15T13:35:02.923Z,6.60
2022-10-15T13:37:34.306Z,6.63
2022-10-15T13:40:06.760Z,6.97
2022-10-15T13:42:35.495Z,6.60
2022-10-15T13:45:16.390Z,6.78
2022-10-15T13:47:48.769Z,6.35
2022-10-15T13:50:28.272Z,6.75
2022-10-15T13:53:10.067Z,6.90
2022-10-15T13:55:40.040Z,7.60
2022-10-15T13:58:26.660Z,6.60
2022-10-15T14:01:03.751Z,7.53
2022-10-15T14:03:33.898Z,6.15
2022-10-15T14:06:19.725Z,6.28
2022-10-15T14:08:49.091Z,5.95
2022-10-15T14:11:17.693Z,6.05
2022-10-15T14:13:55.886Z,6.47
2022-10-15T14:16:39.828Z,6.15
2022-10-15T14:19:06.758Z,5.95
2022-10-15T14:21:35.601Z,6.25
2022-10-15T14:24:13.349Z,5.97
2022-10-15T14:26:40.978Z,5.43
2022-10-15T14:29:16.187Z,5.22
2022-10-15T14:31:47.248Z,6.00
2022-10-15T14:34:41.740Z,4.43
2022-10-15T14:37:30.751Z,5.05
2022-10-15T14:40:15.884Z,4.05
2022-10-15T14:43:03.813Z,4.20
2022-10-15T14:45:54.192Z,3.88
2022-10-15T14:48:25.238Z,4.35
2022-10-15T14:50:53.215Z,2.88
2022-10-15T14:53:28.089Z,3.50
2022-10-15T14:56:03.014Z,2.70
2022-10-15T14:58:30.710Z,2.30
2022-10-15T15:01:00.759Z,2.70
2022-10-15T15:03:37.690Z,2.55
2022-10-15T15:06:05.126Z,2.50
2022-10-15T15:08:32.219Z,2.33
2022-10-15T15:11:02.011Z,2.30
2022-10-15T15:13:32.068Z,1.92
2022-10-15T15:15:59.059Z,2.22
2022-10-15T15:18:26.233Z,2.45
2022-10-15T15:20:53.349Z,2.08
2022-10-15T15:23:24.755Z,1.98
2022-10-15T15:25:52.412Z,1.85
2022-10-15T15:28:26.345Z,2.10
2022-10-15T15:31:02.071Z,1.38
2022-10-15T15:33:29.431Z,1.40
2022-10-15T15:36:07.896Z,2.20
2022-10-15T15:41:20.187Z,0.85
2022-10-15T15:46:15.184Z,0.90
2022-10-15T15:48:42.397Z,1.00
2022-10-15T15:51:30.265Z,1.15
2022-10-15T15:53:57.834Z,0.80
2022-10-15T15:56:25.336Z,0.93
2022-10-15T15:58:52.505Z,1.25
2022-10-15T16:01:20.102Z,0.85
2022-10-15T16:03:47.155Z,0.80
2022-10-15T16:06:14.360Z,3.10
2022-10-15T16:08:41.401Z,1.67
2022-10-15T16:11:08.450Z,1.20
2022-10-15T16:13:35.536Z,0.80
2022-10-15T16:16:03.166Z,1.02
2022-10-15T16:18:30.335Z,1.65
2022-10-15T16:20:57.604Z,1.50
2022-10-15T16:23:24.865Z,1.42
2022-10-15T16:25:54.320Z,2.83
2022-10-15T16:28:21.345Z,1.65
2022-10-15T16:30:48.590Z,1.77
2022-10-15T16:33:15.825Z,2.25
2022-10-15T16:35:42.873Z,2.00
2022-10-15T16:38:09.897Z,2.80
2022-10-15T16:40:38.479Z,2.95
2022-10-15T16:43:05.648Z,2.53
2022-10-15T16:45:33.383Z,2.15
2022-10-15T16:48:00.376Z,3.65
2022-10-15T16:50:27.344Z,3.65
2022-10-15T16:52:54.437Z,4.38
2022-10-15T16:55:21.445Z,4.18
2022-10-15T16:57:48.462Z,4.22
2022-10-15T17:00:15.451Z,7.95
2022-10-15T17:02:42.567Z,19.20
2022-10-15T17:05:09.689Z,10.13
2022-10-15T17:07:36.731Z,8.25
2022-10-15T17:10:04.160Z,13.50
2022-10-15T17:12:31.200Z,16.63
2022-10-15T17:14:58.252Z,12.10
2022-10-15T17:17:27.969Z,9.90
2022-10-15T17:19:55.461Z,6.70
2022-10-15T17:22:22.753Z,4.57
2022-10-15T17:24:50.165Z,3.92
2022-10-15T17:27:17.496Z,7.30
2022-10-15T17:29:44.605Z,4.00
2022-10-15T17:32:11.602Z,3.00
2022-10-15T17:34:38.582Z,7.13
2022-10-15T17:37:05.568Z,9.32
2022-10-15T17:39:33.171Z,6.45
2022-10-15T17:42:00.250Z,8.13
2022-10-15T17:44:27.324Z,17.38
2022-10-15T17:46:54.368Z,18.33
2022-10-15T17:49:21.401Z,8.98
2022-10-15T17:51:48.546Z,3.58
2022-10-15T17:54:15.743Z,3.33
2022-10-15T17:56:42.994Z,4.43
2022-10-15T17:59:12.716Z,7.22
2022-10-15T18:01:59.189Z,9.85
2022-10-15T18:04:28.437Z,18.90
2022-10-15T18:06:55.682Z,38.28
2022-10-15T18:09:22.688Z,25.30
2022-10-15T18:11:49.760Z,71.28
2022-10-15T18:14:16.891Z,18.98
2022-10-15T18:16:44.287Z,25.58
2022-10-15T18:19:11.570Z,16.42
2022-10-15T18:21:43.414Z,22.70
2022-10-15T18:24:12.761Z,27.90
2022-10-15T18:26:39.826Z,34.13
2022-10-15T18:29:07.014Z,15.38
2022-10-15T18:31:34.081Z,13.15
2022-10-15T18:34:01.063Z,17.38
2022-10-15T18:36:30.769Z,9.27
2022-10-15T18:38:58.326Z,4.78
2022-10-15T18:41:28.229Z,12.27
2022-10-15T18:43:58.292Z,11.52
2022-10-15T18:46:27.360Z,15.40
2022-10-15T18:48:55.021Z,14.02
2022-10-15T18:51:22.169Z,6.60
2022-10-15T18:53:49.180Z,5.65
2022-10-15T18:56:16.247Z,5.90
2022-10-15T18:58:43.322Z,5.60
2022-10-15T19:01:25.422Z,6.38
2022-10-15T19:03:56.694Z,4.20
2022-10-15T19:06:27.349Z,3.95
2022-10-15T19:08:57.679Z,4.22
2022-10-15T19:11:26.102Z,3.97
2022-10-15T19:13:53.458Z,6.20
2022-10-15T19:16:20.539Z,4.78
2022-10-15T19:18:47.541Z,5.63
2022-10-15T19:21:14.860Z,7.68
2022-10-15T19:23:41.944Z,10.05
2022-10-15T19:26:13.569Z,4.25
2022-10-15T19:28:40.783Z,3.53
2022-10-15T19:31:11.596Z,3.03
2022-10-15T19:33:38.689Z,2.80
2022-10-15T19:36:05.861Z,3.90
2022-10-15T19:38:35.674Z,3.08
2022-10-15T19:41:05.629Z,3.60
2022-10-15T19:43:36.005Z,4.18
2022-10-15T19:46:04.318Z,3.42
2022-10-15T19:48:31.978Z,3.67
2022-10-15T19:51:02.006Z,3.30
2022-10-15T19:53:31.990Z,3.15
2022-10-15T19:56:02.350Z,2.75
2022-10-15T19:58:30.068Z,3.15
2022-10-15T20:00:57.769Z,3.85
2022-10-15T20:03:26.846Z,4.68
2022-10-15T20:05:55.414Z,3.20
2022-10-15T20:08:23.031Z,2.80
2022-10-15T20:10:51.394Z,2.50
2022-10-15T20:13:20.714Z,1.88
2022-10-15T20:15:51.291Z,1.70
2022-10-15T20:18:19.646Z,2.08
2022-10-15T20:20:47.594Z,1.65
2022-10-15T20:23:16.211Z,1.52
2022-10-15T20:25:44.221Z,1.40
2022-10-15T20:28:13.393Z,2.92
2022-10-15T20:30:40.800Z,2.45
2022-10-15T20:33:08.831Z,2.30
2022-10-15T20:35:37.457Z,2.03
2022-10-15T20:38:05.497Z,2.65
2022-10-15T20:40:34.438Z,2.05
2022-10-15T20:43:01.455Z,2.45
2022-10-15T20:45:34.628Z,2.05
2022-10-15T20:48:05.688Z,2.53
2022-10-15T20:50:35.621Z,2.20
2022-10-15T20:53:03.338Z,2.17
2022-10-15T20:55:30.344Z,2.58
2022-10-15T20:57:57.430Z,2.00
2022-10-15T21:00:24.480Z,1.98
2022-10-15T21:02:51.522Z,2.15
2022-10-15T21:05:18.597Z,1.67
2022-10-15T21:07:45.581Z,2.00
2022-10-15T21:10:12.799Z,2.05
2022-10-15T21:12:39.803Z,2.22
2022-10-15T21:15:07.383Z,2.38
2022-10-15T21:17:34.375Z,3.25
2022-10-15T21:20:01.458Z,3.22
2022-10-15T21:22:28.453Z,2.10
2022-10-15T21:24:58.261Z,3.35
2022-10-15T21:27:26.045Z,2.10
2022-10-15T21:29:53.193Z,1.60
2022-10-15T21:32:20.176Z,2.00
2022-10-15T21:34:47.198Z,2.08
2022-10-15T21:37:14.278Z,2.17
2022-10-15T21:39:41.269Z,2.08
2022-10-15T21:42:08.291Z,1.58
2022-10-15T21:44:35.303Z,1.60
2022-10-15T21:47:02.307Z,1.73
2022-10-15T21:49:29.306Z,1.58
2022-10-15T21:51:56.368Z,2.03
2022-10-15T21:54:23.502Z,2.38
2022-10-15T21:56:50.571Z,1.83
2022-10-15T21:59:17.545Z,2.00
2022-10-15T22:01:45.632Z,1.45
2022-10-15T22:04:12.847Z,1.92
2022-10-15T22:06:40.454Z,1.42
2022-10-15T22:09:08.372Z,1.30
2022-10-15T22:11:38.218Z,1.75
2022-10-15T22:14:07.532Z,2.20
2022-10-15T22:16:36.788Z,1.70
2022-10-15T22:19:05.474Z,1.50
2022-10-15T22:21:36.264Z,1.83
2022-10-15T22:24:07.200Z,1.70
2022-10-15T22:26:37.961Z,1.77
2022-10-15T22:29:06.445Z,1.63
2022-10-15T22:31:34.067Z,1.92
2022-10-15T22:34:01.179Z,1.60
2022-10-15T22:36:30.496Z,1.20
2022-10-15T22:39:01.738Z,2.03
2022-10-15T22:41:31.588Z,1.83
2022-10-15T22:43:58.811Z,1.33
2022-10-15T22:46:26.700Z,1.40
2022-10-15T22:48:53.813Z,2.08
2022-10-15T22:51:21.116Z,1.13
2022-10-15T22:53:48.406Z,1.48
2022-10-15T22:56:17.872Z,1.70
2022-10-15T22:58:45.680Z,1.67
2022-10-15T23:01:24.847Z,1.38
2022-10-15T23:03:54.767Z,1.50
2022-10-15T23:06:22.789Z,1.25
2022-10-15T23:08:50.240Z,1.80
2022-10-15T23:11:21.318Z,1.60
2022-10-15T23:13:53.454Z,1.70
2022-10-15T23:16:26.224Z,1.35
2022-10-15T23:18:56.027Z,1.35
2022-10-15T23:21:45.168Z,1.42
2022-10-15T23:24:13.290Z,1.50
2022-10-15T23:26:40.875Z,1.70
2022-10-15T23:29:14.034Z,1.48
2022-10-15T23:31:41.267Z,1.70
2022-10-15T23:34:14.504Z,2.03
2022-10-15T23:36:41.834Z,1.73
2022-10-15T23:39:13.080Z,1.88
2022-10-15T23:41:40.388Z,2.28
2022-10-15T23:44:07.994Z,1.75
2022-10-15T23:46:35.029Z,1.25
2022-10-15T23:49:02.092Z,2.00
2022-10-15T23:51:30.429Z,1.75
2022-10-15T23:53:59.295Z,1.30
2022-10-15T23:56:26.756Z,1.83
2022-10-15T23:58:56.934Z,1.63
